Aristoklis — V7WV9 — position and weather

sailwx.info

Track history (hours):
 
Tides and Currents Weather Stations Pressure Air Temp Water Temp Dewpoint Dewpoint Depression Visibility Wind Speed Wind Dir Waves Ship Positions

Aristoklis

Last reported at 2017-Sep-22 02:00 UTC. Time now 2017-Oct-16 22:37 UTC.
Position N 38°02' W 122°07'.
Warning: this ship's position is 24 days out of date.

Length 250 m; draft 11.6 m.

Type: Tanker. MMSI: 538007127.

Date/timePositionNaut miles runAvg speedWind from/ knotsBaromVisibWave heightAir tempDewpointWater temp
2017-Sep-22 02:00N 38°02' W 122°07'0 0.0
2017-Sep-22 01:31N 38°02' W 122°07'0 0.0
2017-Sep-22 01:01N 38°02' W 122°07'0 0.0
2017-Sep-22 00:30N 38°02' W 122°07'0 0.0
2017-Sep-22 00:00N 38°02' W 122°07'0 0.0
2017-Sep-21 23:31N 38°02' W 122°07'0 0.0
2017-Sep-21 23:00N 38°02' W 122°07'0 0.0
2017-Sep-21 22:30N 38°02' W 122°07'0 0.0
2017-Sep-21 22:00N 38°02' W 122°07'0 0.0
2017-Sep-21 21:31N 38°02' W 122°07'0 0.0
2017-Sep-21 21:00N 38°02' W 122°07'0 0.0
2017-Sep-21 20:31N 38°02' W 122°07'0 0.1
2017-Sep-21 20:01N 38°02' W 122°07'0 0.0
2017-Sep-21 19:31N 38°02' W 122°07'0 0.1
2017-Sep-21 19:00N 38°02' W 122°07'0 0.0
2017-Sep-21 18:30N 38°02' W 122°07'0 0.0
2017-Sep-21 18:00N 38°02' W 122°07'0 0.0
2017-Sep-21 17:29N 38°02' W 122°07'0 0.0
2017-Sep-21 17:01N 38°02' W 122°07'0 0.0
2017-Sep-21 16:31N 38°02' W 122°07'0 0.0
2017-Sep-21 16:00N 38°02' W 122°07'0 0.0
2017-Sep-21 15:30N 38°02' W 122°07'0 0.0
2017-Sep-21 15:01N 38°02' W 122°07'0 0.0
2017-Sep-21 14:31N 38°02' W 122°07'0 0.0
2017-Sep-21 14:01N 38°02' W 122°07'0 0.0
2017-Sep-21 13:31N 38°02' W 122°07'0 0.0
2017-Sep-21 13:00N 38°02' W 122°07'0 0.0
2017-Sep-21 12:30N 38°02' W 122°07'0 0.0
2017-Sep-21 12:01N 38°02' W 122°07'0 0.0
2017-Sep-21 11:31N 38°02' W 122°07'0 0.0
2017-Sep-21 11:01N 38°02' W 122°07'0 0.0
2017-Sep-21 10:31N 38°02' W 122°07'0 0.0
2017-Sep-21 10:01N 38°02' W 122°07'0 0.0
2017-Sep-21 09:31N 38°02' W 122°07'0 0.0
2017-Sep-21 09:01N 38°02' W 122°07'0 0.0
2017-Sep-21 08:31N 38°02' W 122°07'0 0.0
2017-Sep-21 08:01N 38°02' W 122°07'0 0.0
2017-Sep-21 07:31N 38°02' W 122°07'0 0.0
2017-Sep-21 07:01N 38°02' W 122°07'0 0.0
2017-Sep-21 06:30N 38°02' W 122°07'0 0.0
2017-Sep-21 06:00N 38°02' W 122°07'0 0.0
2017-Sep-21 05:30N 38°02' W 122°07'0 0.0
2017-Sep-21 05:00N 38°02' W 122°07'0 0.0
2017-Sep-21 04:30N 38°02' W 122°07'0 0.1
2017-Sep-21 04:00N 38°02' W 122°07'0 0.1
2017-Sep-21 03:31N 38°02' W 122°07'0 0.0
2017-Sep-21 03:01N 38°02' W 122°07'0 0.0
2017-Sep-21 02:30N 38°02' W 122°07'0 0.0
2017-Sep-21 02:01N 38°02' W 122°07'0 0.0
2017-Sep-21 01:31N 38°02' W 122°07'0 0.0
2017-Sep-21 01:01N 38°02' W 122°07'0 0.0
2017-Sep-21 00:31N 38°02' W 122°07'0 0.0
2017-Sep-21 00:00N 38°02' W 122°07'0 0.0
2017-Sep-20 23:31N 38°02' W 122°07'0 0.1
2017-Sep-20 23:00N 38°02' W 122°07'0 0.1
2017-Sep-20 22:30N 38°02' W 122°07'0 0.1
2017-Sep-20 22:01N 38°02' W 122°07'1 1.2
2017-Sep-20 21:31N 38°02' W 122°08'3 5.8
2017-Sep-20 21:00N 38°03' W 122°11'5 9.6
2017-Sep-20 20:31N 38°03' W 122°17'4 7.9
2017-Sep-20 20:01N 38°02' W 122°22'5 9.8
2017-Sep-20 19:31N 37°58' W 122°26'5 9.6
2017-Sep-20 19:01N 37°54' W 122°26'4 8.6
2017-Sep-20 18:30N 37°50' W 122°24'3 6.4
2017-Sep-20 18:01N 37°47' W 122°22'1 1.7
2017-Sep-20 17:31N 37°46' W 122°21'0 0.2
2017-Sep-20 16:59N 37°46' W 122°21'0 0.0
2017-Sep-20 16:29N 37°46' W 122°21'0 0.0
2017-Sep-20 15:59N 37°46' W 122°21'0 0.0
2017-Sep-20 15:29N 37°46' W 122°21'0 0.5
2017-Sep-20 14:59N 37°46' W 122°22'0 0.1
2017-Sep-20 13:59N 37°46' W 122°22'0 0.0
2017-Sep-20 13:29N 37°46' W 122°22'0 0.1
2017-Sep-20 12:59N 37°46' W 122°22'0 0.0
2017-Sep-20 12:29N 37°46' W 122°22'0 0.0
2017-Sep-20 11:59N 37°46' W 122°22'0 0.0
2017-Sep-20 11:29N 37°46' W 122°22'0 0.0
2017-Sep-20 10:59N 37°46' W 122°22'0 0.0
2017-Sep-20 10:29N 37°46' W 122°22'0 0.2
2017-Sep-20 09:59N 37°46' W 122°22'0 0.0
2017-Sep-20 09:29N 37°46' W 122°22'0 0.0
2017-Sep-20 08:59N 37°46' W 122°22'0 0.1
2017-Sep-20 08:29N 37°46' W 122°22'0 0.4
2017-Sep-20 07:59N 37°46' W 122°21'0 0.1
2017-Sep-20 07:29N 37°46' W 122°21'0 0.0
2017-Sep-20 06:59N 37°46' W 122°21'0 0.1
2017-Sep-20 06:29N 37°46' W 122°21'0 0.0
2017-Sep-20 05:59N 37°46' W 122°21'0 0.1
2017-Sep-20 05:29N 37°46' W 122°21'0 0.0
2017-Sep-20 04:59N 37°46' W 122°21'0 0.0
2017-Sep-20 04:29N 37°46' W 122°21'0 0.0
2017-Sep-20 03:59N 37°46' W 122°21'0 0.1
2017-Sep-20 03:31N 37°46' W 122°21'1 2.5
2017-Sep-20 03:01N 37°47' W 122°22'4 7.7
2017-Sep-20 02:31N 37°49' W 122°27'5 9.9
2017-Sep-20 02:00N 37°47' W 122°32'611.3
2017-Sep-20 01:31N 37°45' W 122°39'4 7.6
2017-Sep-20 01:00N 37°45' W 122°44'4 7.8
2017-Sep-20 00:31N 37°47' W 122°48'4 8.9
2017-Sep-20 00:01N 37°49' W 122°53'611.6
2017-Sep-19 23:31N 37°52' W 122°59'611.8
2017-Sep-19 23:01N 37°55' W 123°06'611.7
2017-Sep-19 22:31N 37°58' W 123°12'612.9
2017-Sep-19 22:01N 38°03' W 123°17'713.1
2017-Sep-19 21:31N 38°08' W 123°23'612.9
2017-Sep-19 21:01N 38°11' W 123°31'612.9
2017-Sep-19 20:30N 38°13' W 123°38'612.7
2017-Sep-19 20:01N 38°15' W 123°46'612.6
2017-Sep-19 19:31N 38°17' W 123°53'611.8
2017-Sep-19 19:00N 38°19' W 124°00'4 8.5
2017-Sep-19 18:31N 38°21' W 124°05'3 6.8
2017-Sep-19 18:00N 38°22' W 124°09'2 5.0
2017-Sep-19 17:31N 38°23' W 124°12'1212.2
2017-Sep-19 16:34N 38°27' W 124°26'113.1
2017-Sep-19 16:30N 38°27' W 124°27'59112.9
2017-Sep-17 18:51N 48°14' W 126°00'412.3
2017-Sep-17 18:30N 48°16' W 125°55'612.3
2017-Sep-17 18:00N 48°19' W 125°46'612.0
2017-Sep-17 17:30N 48°22' W 125°38'612.5
2017-Sep-17 17:00N 48°24' W 125°30'612.7
2017-Sep-17 16:30N 48°27' W 125°21'713.5
2017-Sep-17 16:00N 48°30' W 125°12'713.6
2017-Sep-17 15:30N 48°31' W 125°02'714.3
2017-Sep-17 15:00N 48°31' W 124°51'714.9
2017-Sep-17 14:31N 48°30' W 124°40'815.5
2017-Sep-17 14:00N 48°27' W 124°29'815.7
2017-Sep-17 13:31N 48°24' W 124°18'815.7
2017-Sep-17 13:01N 48°21' W 124°08'815.4
2017-Sep-17 12:30N 48°18' W 123°57'714.7
2017-Sep-17 12:01N 48°17' W 123°46'714.2
2017-Sep-17 11:31N 48°15' W 123°35'713.3
2017-Sep-17 11:00N 48°13' W 123°26'4 8.9
2017-Sep-17 10:30N 48°09' W 123°24'1 2.4
2017-Sep-17 10:00N 48°08' W 123°25'0 0.1
2017-Sep-17 09:28N 48°08' W 123°25'0 0.1
2017-Sep-17 08:58N 48°08' W 123°25'0 0.1
2017-Sep-17 08:25N 48°08' W 123°25'0 0.1
2017-Sep-17 07:58N 48°08' W 123°25'0 0.1
2017-Sep-17 07:28N 48°08' W 123°25'0 0.1
2017-Sep-17 06:58N 48°08' W 123°25'0 0.0
2017-Sep-17 06:28N 48°08' W 123°25'0 0.0
2017-Sep-17 05:58N 48°08' W 123°25'0 0.0
2017-Sep-17 05:28N 48°08' W 123°25'0 0.1
2017-Sep-17 04:58N 48°08' W 123°25'0 0.1
2017-Sep-17 04:28N 48°08' W 123°25'0 0.1
2017-Sep-17 03:58N 48°08' W 123°25'0 0.4
2017-Sep-17 03:30N 48°08' W 123°25'3 5.5
2017-Sep-17 03:01N 48°08' W 123°21'611.7
2017-Sep-17 02:30N 48°12' W 123°14'714.1
2017-Sep-17 02:00N 48°17' W 123°06'714.0
2017-Sep-17 01:31N 48°21' W 122°57'612.2
2017-Sep-17 01:01N 48°24' W 122°49'510.4
2017-Sep-17 00:31N 48°28' W 122°45'4 8.8
2017-Sep-17 00:01N 48°31' W 122°40'3 6.5
2017-Sep-16 23:31N 48°32' W 122°35'1 0.1
2017-Sep-16 05:35N 48°31' W 122°34'0 0.8
2017-Sep-16 05:26N 48°31' W 122°34'1 2.4
2017-Sep-16 04:59N 48°31' W 122°36'2 4.9
2017-Sep-16 04:30N 48°31' W 122°39'3 5.8
2017-Sep-16 04:00N 48°31' W 122°43'3 6.7
2017-Sep-16 03:30N 48°27' W 122°45'4 8.0
2017-Sep-16 03:00N 48°24' W 122°48'612.8
2017-Sep-16 02:30N 48°20' W 122°56'712.9
2017-Sep-16 02:00N 48°17' W 123°05'612.3
2017-Sep-16 01:30N 48°14' W 123°12'611.0
2017-Sep-16 01:00N 48°11' W 123°20'3 5.7
2017-Sep-16 00:30N 48°10' W 123°24'3 5.3
2017-Sep-16 00:00N 48°11' W 123°27'4 8.3
2017-Sep-15 23:30N 48°13' W 123°33'4 8.8
2017-Sep-15 23:00N 48°13' W 123°40'4 9.0
2017-Sep-15 22:30N 48°13' W 123°46'5 9.7
2017-Sep-15 22:00N 48°13' W 123°53'510.0
2017-Sep-15 21:30N 48°15' W 124°00'510.0
2017-Sep-15 21:00N 48°17' W 124°07'510.6
2017-Sep-15 20:30N 48°19' W 124°14'611.7
2017-Sep-15 20:00N 48°22' W 124°22'611.4
2017-Sep-15 19:31N 48°24' W 124°30'611.2
2017-Sep-15 19:01N 48°26' W 124°38'611.2
2017-Sep-15 18:30N 48°28' W 124°46'611.8
2017-Sep-15 18:01N 48°28' W 124°55'612.4
2017-Sep-15 17:30N 48°28' W 125°04'612.4
2017-Sep-15 17:00N 48°29' W 125°13'612.7
2017-Sep-15 16:30N 48°29' W 125°23'612.8
2017-Sep-15 16:01N 48°29' W 125°33'612.8
2017-Sep-15 15:30N 48°29' W 125°42'611.4
2017-Sep-15 15:00N 48°29' W 125°51'3 6.3
2017-Sep-15 14:30N 48°29' W 125°56'4 8.3
2017-Sep-15 14:00N 48°30' W 126°02'612.7
2017-Sep-15 13:30N 48°30' W 126°12'612.9
2017-Sep-15 13:00N 48°30' W 126°21'612.9
2017-Sep-15 12:30N 48°31' W 126°31'713.1
2017-Sep-15 12:00N 48°32' W 126°41'612.7
2017-Sep-15 11:30N 48°34' W 126°50'613.0
2017-Sep-15 11:00N 48°35' W 126°60'713.3
2017-Sep-15 10:30N 48°36' W 127°09'713.6
2017-Sep-15 09:59N 48°38' W 127°20'713.6
2017-Sep-15 09:29N 48°39' W 127°30'613.4
2017-Sep-15 09:00N 48°40' W 127°39'712.8
2017-Sep-15 08:28N 48°42' W 127°50'3113.0
2017-Sep-15 06:05N 48°48' W 128°35'113.2
2017-Sep-15 06:00N 48°48' W 128°37'713.2
2017-Sep-15 05:30N 48°50' W 128°47'1312.7
2017-Sep-15 04:28N 48°52' W 129°07'612.7
2017-Sep-15 04:00N 48°54' W 129°15'1612.7
2017-Sep-15 02:47N 48°57' W 129°38'1212.5
2017-Sep-15 01:51N 48°59' W 129°56'4012.5
2017-Sep-14 22:40N 49°07' W 130°55'212.7
2017-Sep-14 22:30N 49°07' W 130°58'712.8
2017-Sep-14 21:56N 49°09' W 131°09'1312.7
2017-Sep-14 20:53N 49°11' W 131°29'  
Track history (hours):
 
Tides and Currents Weather Stations Pressure Air Temp Water Temp Dewpoint Dewpoint Depression Visibility Wind Speed Wind Dir Waves Ship Positions

Aristoklis

Last reported at 2017-Sep-22 02:00 UTC. Time now 2017-Oct-16 22:37 UTC.
Position N 38°02' W 122°07'.
Warning: this ship's position is 24 days out of date.

Length 250 m; draft 11.6 m.

Type: Tanker. MMSI: 538007127.

Date/timePositionNaut miles runAvg speedWind from/ knotsBaromVisibWave heightAir tempDewpointWater temp
2017-Sep-22 02:00N 38°02' W 122°07'0 0.0
2017-Sep-22 01:31N 38°02' W 122°07'0 0.0
2017-Sep-22 01:01N 38°02' W 122°07'0 0.0
2017-Sep-22 00:30N 38°02' W 122°07'0 0.0
2017-Sep-22 00:00N 38°02' W 122°07'0 0.0
2017-Sep-21 23:31N 38°02' W 122°07'0 0.0
2017-Sep-21 23:00N 38°02' W 122°07'0 0.0
2017-Sep-21 22:30N 38°02' W 122°07'0 0.0
2017-Sep-21 22:00N 38°02' W 122°07'0 0.0
2017-Sep-21 21:31N 38°02' W 122°07'0 0.0
2017-Sep-21 21:00N 38°02' W 122°07'0 0.0
2017-Sep-21 20:31N 38°02' W 122°07'0 0.1
2017-Sep-21 20:01N 38°02' W 122°07'0 0.0
2017-Sep-21 19:31N 38°02' W 122°07'0 0.1
2017-Sep-21 19:00N 38°02' W 122°07'0 0.0
2017-Sep-21 18:30N 38°02' W 122°07'0 0.0
2017-Sep-21 18:00N 38°02' W 122°07'0 0.0
2017-Sep-21 17:29N 38°02' W 122°07'0 0.0
2017-Sep-21 17:01N 38°02' W 122°07'0 0.0
2017-Sep-21 16:31N 38°02' W 122°07'0 0.0
2017-Sep-21 16:00N 38°02' W 122°07'0 0.0
2017-Sep-21 15:30N 38°02' W 122°07'0 0.0
2017-Sep-21 15:01N 38°02' W 122°07'0 0.0
2017-Sep-21 14:31N 38°02' W 122°07'0 0.0
2017-Sep-21 14:01N 38°02' W 122°07'0 0.0
2017-Sep-21 13:31N 38°02' W 122°07'0 0.0
2017-Sep-21 13:00N 38°02' W 122°07'0 0.0
2017-Sep-21 12:30N 38°02' W 122°07'0 0.0
2017-Sep-21 12:01N 38°02' W 122°07'0 0.0
2017-Sep-21 11:31N 38°02' W 122°07'0 0.0
2017-Sep-21 11:01N 38°02' W 122°07'0 0.0
2017-Sep-21 10:31N 38°02' W 122°07'0 0.0
2017-Sep-21 10:01N 38°02' W 122°07'0 0.0
2017-Sep-21 09:31N 38°02' W 122°07'0 0.0
2017-Sep-21 09:01N 38°02' W 122°07'0 0.0
2017-Sep-21 08:31N 38°02' W 122°07'0 0.0
2017-Sep-21 08:01N 38°02' W 122°07'0 0.0
2017-Sep-21 07:31N 38°02' W 122°07'0 0.0
2017-Sep-21 07:01N 38°02' W 122°07'0 0.0
2017-Sep-21 06:30N 38°02' W 122°07'0 0.0
2017-Sep-21 06:00N 38°02' W 122°07'0 0.0
2017-Sep-21 05:30N 38°02' W 122°07'0 0.0
2017-Sep-21 05:00N 38°02' W 122°07'0 0.0
2017-Sep-21 04:30N 38°02' W 122°07'0 0.1
2017-Sep-21 04:00N 38°02' W 122°07'0 0.1
2017-Sep-21 03:31N 38°02' W 122°07'0 0.0
2017-Sep-21 03:01N 38°02' W 122°07'0 0.0
2017-Sep-21 02:30N 38°02' W 122°07'0 0.0
2017-Sep-21 02:01N 38°02' W 122°07'0 0.0
2017-Sep-21 01:31N 38°02' W 122°07'0 0.0
2017-Sep-21 01:01N 38°02' W 122°07'0 0.0
2017-Sep-21 00:31N 38°02' W 122°07'0 0.0
2017-Sep-21 00:00N 38°02' W 122°07'0 0.0
2017-Sep-20 23:31N 38°02' W 122°07'0 0.1
2017-Sep-20 23:00N 38°02' W 122°07'0 0.1
2017-Sep-20 22:30N 38°02' W 122°07'0 0.1
2017-Sep-20 22:01N 38°02' W 122°07'1 1.2
2017-Sep-20 21:31N 38°02' W 122°08'3 5.8
2017-Sep-20 21:00N 38°03' W 122°11'5 9.6
2017-Sep-20 20:31N 38°03' W 122°17'4 7.9
2017-Sep-20 20:01N 38°02' W 122°22'5 9.8
2017-Sep-20 19:31N 37°58' W 122°26'5 9.6
2017-Sep-20 19:01N 37°54' W 122°26'4 8.6
2017-Sep-20 18:30N 37°50' W 122°24'3 6.4
2017-Sep-20 18:01N 37°47' W 122°22'1 1.7
2017-Sep-20 17:31N 37°46' W 122°21'0 0.2
2017-Sep-20 16:59N 37°46' W 122°21'0 0.0
2017-Sep-20 16:29N 37°46' W 122°21'0 0.0
2017-Sep-20 15:59N 37°46' W 122°21'0 0.0
2017-Sep-20 15:29N 37°46' W 122°21'0 0.5
2017-Sep-20 14:59N 37°46' W 122°22'0 0.1
2017-Sep-20 13:59N 37°46' W 122°22'0 0.0
2017-Sep-20 13:29N 37°46' W 122°22'0 0.1
2017-Sep-20 12:59N 37°46' W 122°22'0 0.0
2017-Sep-20 12:29N 37°46' W 122°22'0 0.0
2017-Sep-20 11:59N 37°46' W 122°22'0 0.0
2017-Sep-20 11:29N 37°46' W 122°22'0 0.0
2017-Sep-20 10:59N 37°46' W 122°22'0 0.0
2017-Sep-20 10:29N 37°46' W 122°22'0 0.2
2017-Sep-20 09:59N 37°46' W 122°22'0 0.0
2017-Sep-20 09:29N 37°46' W 122°22'0 0.0
2017-Sep-20 08:59N 37°46' W 122°22'0 0.1
2017-Sep-20 08:29N 37°46' W 122°22'0 0.4
2017-Sep-20 07:59N 37°46' W 122°21'0 0.1
2017-Sep-20 07:29N 37°46' W 122°21'0 0.0
2017-Sep-20 06:59N 37°46' W 122°21'0 0.1
2017-Sep-20 06:29N 37°46' W 122°21'0 0.0
2017-Sep-20 05:59N 37°46' W 122°21'0 0.1
2017-Sep-20 05:29N 37°46' W 122°21'0 0.0
2017-Sep-20 04:59N 37°46' W 122°21'0 0.0
2017-Sep-20 04:29N 37°46' W 122°21'0 0.0
2017-Sep-20 03:59N 37°46' W 122°21'0 0.1
2017-Sep-20 03:31N 37°46' W 122°21'1 2.5
2017-Sep-20 03:01N 37°47' W 122°22'4 7.7
2017-Sep-20 02:31N 37°49' W 122°27'5 9.9
2017-Sep-20 02:00N 37°47' W 122°32'611.3
2017-Sep-20 01:31N 37°45' W 122°39'4 7.6
2017-Sep-20 01:00N 37°45' W 122°44'4 7.8
2017-Sep-20 00:31N 37°47' W 122°48'4 8.9
2017-Sep-20 00:01N 37°49' W 122°53'611.6
2017-Sep-19 23:31N 37°52' W 122°59'611.8
2017-Sep-19 23:01N 37°55' W 123°06'611.7
2017-Sep-19 22:31N 37°58' W 123°12'612.9
2017-Sep-19 22:01N 38°03' W 123°17'713.1
2017-Sep-19 21:31N 38°08' W 123°23'612.9
2017-Sep-19 21:01N 38°11' W 123°31'612.9
2017-Sep-19 20:30N 38°13' W 123°38'612.7
2017-Sep-19 20:01N 38°15' W 123°46'612.6
2017-Sep-19 19:31N 38°17' W 123°53'611.8
2017-Sep-19 19:00N 38°19' W 124°00'4 8.5
2017-Sep-19 18:31N 38°21' W 124°05'3 6.8
2017-Sep-19 18:00N 38°22' W 124°09'2 5.0
2017-Sep-19 17:31N 38°23' W 124°12'1212.2
2017-Sep-19 16:34N 38°27' W 124°26'113.1
2017-Sep-19 16:30N 38°27' W 124°27'59112.9
2017-Sep-17 18:51N 48°14' W 126°00'412.3
2017-Sep-17 18:30N 48°16' W 125°55'612.3
2017-Sep-17 18:00N 48°19' W 125°46'612.0
2017-Sep-17 17:30N 48°22' W 125°38'612.5
2017-Sep-17 17:00N 48°24' W 125°30'612.7
2017-Sep-17 16:30N 48°27' W 125°21'713.5
2017-Sep-17 16:00N 48°30' W 125°12'713.6
2017-Sep-17 15:30N 48°31' W 125°02'714.3
2017-Sep-17 15:00N 48°31' W 124°51'714.9
2017-Sep-17 14:31N 48°30' W 124°40'815.5
2017-Sep-17 14:00N 48°27' W 124°29'815.7
2017-Sep-17 13:31N 48°24' W 124°18'815.7
2017-Sep-17 13:01N 48°21' W 124°08'815.4
2017-Sep-17 12:30N 48°18' W 123°57'714.7
2017-Sep-17 12:01N 48°17' W 123°46'714.2
2017-Sep-17 11:31N 48°15' W 123°35'713.3
2017-Sep-17 11:00N 48°13' W 123°26'4 8.9
2017-Sep-17 10:30N 48°09' W 123°24'1 2.4
2017-Sep-17 10:00N 48°08' W 123°25'0 0.1
2017-Sep-17 09:28N 48°08' W 123°25'0 0.1
2017-Sep-17 08:58N 48°08' W 123°25'0 0.1
2017-Sep-17 08:25N 48°08' W 123°25'0 0.1
2017-Sep-17 07:58N 48°08' W 123°25'0 0.1
2017-Sep-17 07:28N 48°08' W 123°25'0 0.1
2017-Sep-17 06:58N 48°08' W 123°25'0 0.0
2017-Sep-17 06:28N 48°08' W 123°25'0 0.0
2017-Sep-17 05:58N 48°08' W 123°25'0 0.0
2017-Sep-17 05:28N 48°08' W 123°25'0 0.1
2017-Sep-17 04:58N 48°08' W 123°25'0 0.1
2017-Sep-17 04:28N 48°08' W 123°25'0 0.1
2017-Sep-17 03:58N 48°08' W 123°25'0 0.4
2017-Sep-17 03:30N 48°08' W 123°25'3 5.5
2017-Sep-17 03:01N 48°08' W 123°21'611.7
2017-Sep-17 02:30N 48°12' W 123°14'714.1
2017-Sep-17 02:00N 48°17' W 123°06'714.0
2017-Sep-17 01:31N 48°21' W 122°57'612.2
2017-Sep-17 01:01N 48°24' W 122°49'510.4
2017-Sep-17 00:31N 48°28' W 122°45'4 8.8
2017-Sep-17 00:01N 48°31' W 122°40'3 6.5
2017-Sep-16 23:31N 48°32' W 122°35'1 0.1
2017-Sep-16 05:35N 48°31' W 122°34'0 0.8
2017-Sep-16 05:26N 48°31' W 122°34'1 2.4
2017-Sep-16 04:59N 48°31' W 122°36'2 4.9
2017-Sep-16 04:30N 48°31' W 122°39'3 5.8
2017-Sep-16 04:00N 48°31' W 122°43'3 6.7
2017-Sep-16 03:30N 48°27' W 122°45'4 8.0
2017-Sep-16 03:00N 48°24' W 122°48'612.8
2017-Sep-16 02:30N 48°20' W 122°56'712.9
2017-Sep-16 02:00N 48°17' W 123°05'612.3
2017-Sep-16 01:30N 48°14' W 123°12'611.0
2017-Sep-16 01:00N 48°11' W 123°20'3 5.7
2017-Sep-16 00:30N 48°10' W 123°24'3 5.3
2017-Sep-16 00:00N 48°11' W 123°27'4 8.3
2017-Sep-15 23:30N 48°13' W 123°33'4 8.8
2017-Sep-15 23:00N 48°13' W 123°40'4 9.0
2017-Sep-15 22:30N 48°13' W 123°46'5 9.7
2017-Sep-15 22:00N 48°13' W 123°53'510.0
2017-Sep-15 21:30N 48°15' W 124°00'510.0
2017-Sep-15 21:00N 48°17' W 124°07'510.6
2017-Sep-15 20:30N 48°19' W 124°14'611.7
2017-Sep-15 20:00N 48°22' W 124°22'611.4
2017-Sep-15 19:31N 48°24' W 124°30'611.2
2017-Sep-15 19:01N 48°26' W 124°38'611.2
2017-Sep-15 18:30N 48°28' W 124°46'611.8
2017-Sep-15 18:01N 48°28' W 124°55'612.4
2017-Sep-15 17:30N 48°28' W 125°04'612.4
2017-Sep-15 17:00N 48°29' W 125°13'612.7
2017-Sep-15 16:30N 48°29' W 125°23'612.8
2017-Sep-15 16:01N 48°29' W 125°33'612.8
2017-Sep-15 15:30N 48°29' W 125°42'611.4
2017-Sep-15 15:00N 48°29' W 125°51'3 6.3
2017-Sep-15 14:30N 48°29' W 125°56'4 8.3
2017-Sep-15 14:00N 48°30' W 126°02'612.7
2017-Sep-15 13:30N 48°30' W 126°12'612.9
2017-Sep-15 13:00N 48°30' W 126°21'612.9
2017-Sep-15 12:30N 48°31' W 126°31'713.1
2017-Sep-15 12:00N 48°32' W 126°41'612.7
2017-Sep-15 11:30N 48°34' W 126°50'613.0
2017-Sep-15 11:00N 48°35' W 126°60'713.3
2017-Sep-15 10:30N 48°36' W 127°09'713.6
2017-Sep-15 09:59N 48°38' W 127°20'713.6
2017-Sep-15 09:29N 48°39' W 127°30'613.4
2017-Sep-15 09:00N 48°40' W 127°39'712.8
2017-Sep-15 08:28N 48°42' W 127°50'3113.0
2017-Sep-15 06:05N 48°48' W 128°35'113.2
2017-Sep-15 06:00N 48°48' W 128°37'713.2
2017-Sep-15 05:30N 48°50' W 128°47'1312.7
2017-Sep-15 04:28N 48°52' W 129°07'612.7
2017-Sep-15 04:00N 48°54' W 129°15'1612.7
2017-Sep-15 02:47N 48°57' W 129°38'1212.5
2017-Sep-15 01:51N 48°59' W 129°56'4012.5
2017-Sep-14 22:40N 49°07' W 130°55'212.7
2017-Sep-14 22:30N 49°07' W 130°58'712.8
2017-Sep-14 21:56N 49°09' W 131°09'1312.7
2017-Sep-14 20:53N 49°11' W 131°29'  

Dump ship's entire track history